sensor_id;sensor_type;location;lat;lon;timestamp;P1;durP1;ratioP1;P2;durP2;ratioP2
76236;SDS011;65038;53.200;6.530;2022-11-15T00:01:39;23.77;;;12.77;;
76236;SDS011;65038;53.200;6.530;2022-11-15T00:04:05;28.40;;;14.55;;
76236;SDS011;65038;53.200;6.530;2022-11-15T00:06:32;28.35;;;13.63;;
76236;SDS011;65038;53.200;6.530;2022-11-15T00:08:58;26.98;;;13.73;;
76236;SDS011;65038;53.200;6.530;2022-11-15T00:11:24;24.60;;;12.90;;
76236;SDS011;65038;53.200;6.530;2022-11-15T00:13:50;26.33;;;12.88;;
76236;SDS011;65038;53.200;6.530;2022-11-15T00:16:16;29.52;;;13.52;;
76236;SDS011;65038;53.200;6.530;2022-11-15T00:18:42;24.63;;;13.75;;
76236;SDS011;65038;53.200;6.530;2022-11-15T00:21:12;33.22;;;13.80;;
76236;SDS011;65038;53.200;6.530;2022-11-15T00:23:38;28.60;;;14.57;;
76236;SDS011;65038;53.200;6.530;2022-11-15T00:26:04;27.27;;;13.68;;
76236;SDS011;65038;53.200;6.530;2022-11-15T00:28:30;25.60;;;13.20;;
76236;SDS011;65038;53.200;6.530;2022-11-15T00:31:00;26.27;;;13.13;;
76236;SDS011;65038;53.200;6.530;2022-11-15T00:33:27;29.08;;;14.50;;
76236;SDS011;65038;53.200;6.530;2022-11-15T00:35:53;28.02;;;14.52;;
76236;SDS011;65038;53.200;6.530;2022-11-15T00:38:19;29.48;;;14.82;;
76236;SDS011;65038;53.200;6.530;2022-11-15T00:40:45;30.00;;;16.00;;
76236;SDS011;65038;53.200;6.530;2022-11-15T00:43:11;28.20;;;14.48;;
76236;SDS011;65038;53.200;6.530;2022-11-15T00:45:37;31.67;;;14.30;;
76236;SDS011;65038;53.200;6.530;2022-11-15T00:48:03;29.08;;;14.65;;
76236;SDS011;65038;53.200;6.530;2022-11-15T00:50:29;31.52;;;15.02;;
76236;SDS011;65038;53.200;6.530;2022-11-15T00:52:55;28.95;;;14.63;;
76236;SDS011;65038;53.200;6.530;2022-11-15T00:55:21;26.80;;;14.60;;
76236;SDS011;65038;53.200;6.530;2022-11-15T00:57:47;29.60;;;14.60;;
76236;SDS011;65038;53.200;6.530;2022-11-15T01:00:13;30.30;;;14.50;;
76236;SDS011;65038;53.200;6.530;2022-11-15T01:02:39;29.77;;;14.50;;
76236;SDS011;65038;53.200;6.530;2022-11-15T01:05:05;28.20;;;14.63;;
76236;SDS011;65038;53.200;6.530;2022-11-15T01:07:32;26.73;;;14.25;;
76236;SDS011;65038;53.200;6.530;2022-11-15T01:09:58;25.77;;;13.77;;
76236;SDS011;65038;53.200;6.530;2022-11-15T01:12:24;25.27;;;13.30;;
76236;SDS011;65038;53.200;6.530;2022-11-15T01:14:49;29.23;;;14.00;;
76236;SDS011;65038;53.200;6.530;2022-11-15T01:17:15;27.17;;;12.98;;
76236;SDS011;65038;53.200;6.530;2022-11-15T01:19:42;27.63;;;14.13;;
76236;SDS011;65038;53.200;6.530;2022-11-15T01:22:07;24.98;;;13.65;;
76236;SDS011;65038;53.200;6.530;2022-11-15T01:24:33;25.95;;;13.55;;
76236;SDS011;65038;53.200;6.530;2022-11-15T01:26:59;21.88;;;11.93;;
76236;SDS011;65038;53.200;6.530;2022-11-15T01:29:25;23.20;;;12.48;;
76236;SDS011;65038;53.200;6.530;2022-11-15T01:31:52;26.95;;;13.18;;
76236;SDS011;65038;53.200;6.530;2022-11-15T01:34:19;26.27;;;14.55;;
76236;SDS011;65038;53.200;6.530;2022-11-15T01:36:45;26.17;;;13.32;;
76236;SDS011;65038;53.200;6.530;2022-11-15T01:39:11;29.13;;;15.43;;
76236;SDS011;65038;53.200;6.530;2022-11-15T01:41:37;28.88;;;14.80;;
76236;SDS011;65038;53.200;6.530;2022-11-15T01:46:47;32.47;;;14.63;;
76236;SDS011;65038;53.200;6.530;2022-11-15T01:49:17;28.33;;;14.73;;
76236;SDS011;65038;53.200;6.530;2022-11-15T01:51:45;30.52;;;15.02;;
76236;SDS011;65038;53.200;6.530;2022-11-15T01:54:12;28.17;;;14.82;;
76236;SDS011;65038;53.200;6.530;2022-11-15T01:59:31;29.52;;;14.38;;
76236;SDS011;65038;53.200;6.530;2022-11-15T02:01:58;29.35;;;14.73;;
76236;SDS011;65038;53.200;6.530;2022-11-15T02:04:25;33.47;;;14.52;;
76236;SDS011;65038;53.200;6.530;2022-11-15T02:06:51;29.45;;;14.40;;
76236;SDS011;65038;53.200;6.530;2022-11-15T02:09:17;31.95;;;14.30;;
76236;SDS011;65038;53.200;6.530;2022-11-15T02:11:44;28.85;;;15.00;;
76236;SDS011;65038;53.200;6.530;2022-11-15T02:14:10;26.95;;;14.40;;
76236;SDS011;65038;53.200;6.530;2022-11-15T02:32:18;23.05;;;11.82;;
76236;SDS011;65038;53.200;6.530;2022-11-15T02:37:16;29.98;;;14.25;;
76236;SDS011;65038;53.200;6.530;2022-11-15T02:39:51;25.35;;;12.18;;
76236;SDS011;65038;53.200;6.530;2022-11-15T02:42:23;29.02;;;13.65;;
76236;SDS011;65038;53.200;6.530;2022-11-15T02:45:11;27.00;;;13.63;;
76236;SDS011;65038;53.200;6.530;2022-11-15T02:47:41;29.23;;;13.40;;
76236;SDS011;65038;53.200;6.530;2022-11-15T02:50:12;28.75;;;13.55;;
76236;SDS011;65038;53.200;6.530;2022-11-15T02:52:39;30.05;;;14.68;;
76236;SDS011;65038;53.200;6.530;2022-11-15T02:55:05;30.77;;;14.35;;
76236;SDS011;65038;53.200;6.530;2022-11-15T02:57:44;28.52;;;13.80;;
76236;SDS011;65038;53.200;6.530;2022-11-15T03:00:12;31.52;;;14.25;;
76236;SDS011;65038;53.200;6.530;2022-11-15T03:08:15;29.88;;;14.02;;
76236;SDS011;65038;53.200;6.530;2022-11-15T03:10:51;33.88;;;14.73;;
76236;SDS011;65038;53.200;6.530;2022-11-15T03:13:29;35.25;;;14.68;;
76236;SDS011;65038;53.200;6.530;2022-11-15T03:16:00;32.35;;;14.23;;
76236;SDS011;65038;53.200;6.530;2022-11-15T03:18:29;35.88;;;15.10;;
76236;SDS011;65038;53.200;6.530;2022-11-15T03:20:58;34.78;;;15.60;;
76236;SDS011;65038;53.200;6.530;2022-11-15T03:23:26;35.28;;;15.23;;
76236;SDS011;65038;53.200;6.530;2022-11-15T03:25:53;34.33;;;15.57;;
76236;SDS011;65038;53.200;6.530;2022-11-15T03:28:25;37.25;;;15.55;;
76236;SDS011;65038;53.200;6.530;2022-11-15T03:30:54;35.63;;;14.82;;
76236;SDS011;65038;53.200;6.530;2022-11-15T03:33:20;35.10;;;15.57;;
76236;SDS011;65038;53.200;6.530;2022-11-15T03:35:47;39.92;;;15.95;;
76236;SDS011;65038;53.200;6.530;2022-11-15T03:40:40;34.75;;;15.35;;
76236;SDS011;65038;53.200;6.530;2022-11-15T03:43:11;40.63;;;15.80;;
76236;SDS011;65038;53.200;6.530;2022-11-15T03:45:51;40.70;;;14.82;;
76236;SDS011;65038;53.200;6.530;2022-11-15T03:48:23;36.85;;;15.38;;
76236;SDS011;65038;53.200;6.530;2022-11-15T03:50:50;36.88;;;15.27;;
76236;SDS011;65038;53.200;6.530;2022-11-15T03:53:16;37.38;;;15.77;;
76236;SDS011;65038;53.200;6.530;2022-11-15T03:55:42;34.40;;;15.07;;
76236;SDS011;65038;53.200;6.530;2022-11-15T03:58:08;40.30;;;16.20;;
76236;SDS011;65038;53.200;6.530;2022-11-15T04:00:34;37.17;;;15.38;;
76236;SDS011;65038;53.200;6.530;2022-11-15T04:03:00;35.83;;;15.15;;
76236;SDS011;65038;53.200;6.530;2022-11-15T04:05:26;44.00;;;16.65;;
76236;SDS011;65038;53.200;6.530;2022-11-15T04:07:53;39.10;;;15.50;;
76236;SDS011;65038;53.200;6.530;2022-11-15T04:10:19;34.63;;;14.80;;
76236;SDS011;65038;53.200;6.530;2022-11-15T04:12:45;44.83;;;16.45;;
76236;SDS011;65038;53.200;6.530;2022-11-15T04:15:22;40.35;;;15.13;;
76236;SDS011;65038;53.200;6.530;2022-11-15T04:17:49;40.22;;;16.05;;
76236;SDS011;65038;53.200;6.530;2022-11-15T04:20:16;46.20;;;16.50;;
76236;SDS011;65038;53.200;6.530;2022-11-15T04:23:02;42.25;;;16.48;;
76236;SDS011;65038;53.200;6.530;2022-11-15T04:25:49;41.72;;;15.70;;
76236;SDS011;65038;53.200;6.530;2022-11-15T04:28:15;40.80;;;15.98;;
76236;SDS011;65038;53.200;6.530;2022-11-15T04:30:41;37.70;;;16.00;;
76236;SDS011;65038;53.200;6.530;2022-11-15T04:33:07;39.83;;;16.15;;
76236;SDS011;65038;53.200;6.530;2022-11-15T04:35:33;43.53;;;16.88;;
76236;SDS011;65038;53.200;6.530;2022-11-15T04:37:59;42.47;;;17.02;;
76236;SDS011;65038;53.200;6.530;2022-11-15T04:40:26;48.58;;;17.38;;
76236;SDS011;65038;53.200;6.530;2022-11-15T04:42:52;42.92;;;16.05;;
76236;SDS011;65038;53.200;6.530;2022-11-15T04:45:18;44.65;;;17.42;;
76236;SDS011;65038;53.200;6.530;2022-11-15T04:47:44;43.42;;;16.92;;
76236;SDS011;65038;53.200;6.530;2022-11-15T04:50:11;49.30;;;16.33;;
76236;SDS011;65038;53.200;6.530;2022-11-15T04:52:39;49.67;;;17.38;;
76236;SDS011;65038;53.200;6.530;2022-11-15T04:55:05;44.85;;;16.95;;
76236;SDS011;65038;53.200;6.530;2022-11-15T04:57:31;54.65;;;18.52;;
76236;SDS011;65038;53.200;6.530;2022-11-15T04:59:57;56.67;;;20.08;;
76236;SDS011;65038;53.200;6.530;2022-11-15T05:02:23;51.70;;;18.30;;
76236;SDS011;65038;53.200;6.530;2022-11-15T05:05:09;51.38;;;18.52;;
76236;SDS011;65038;53.200;6.530;2022-11-15T05:07:35;50.05;;;17.52;;
76236;SDS011;65038;53.200;6.530;2022-11-15T05:10:01;52.28;;;17.85;;
76236;SDS011;65038;53.200;6.530;2022-11-15T05:12:27;54.75;;;19.88;;
76236;SDS011;65038;53.200;6.530;2022-11-15T05:14:53;61.75;;;20.45;;
76236;SDS011;65038;53.200;6.530;2022-11-15T05:17:19;56.55;;;18.92;;
76236;SDS011;65038;53.200;6.530;2022-11-15T05:19:45;55.60;;;19.70;;
76236;SDS011;65038;53.200;6.530;2022-11-15T05:22:11;54.03;;;19.92;;
76236;SDS011;65038;53.200;6.530;2022-11-15T05:24:37;58.13;;;20.27;;
76236;SDS011;65038;53.200;6.530;2022-11-15T05:27:03;63.38;;;21.75;;
76236;SDS011;65038;53.200;6.530;2022-11-15T05:29:29;62.35;;;20.05;;
76236;SDS011;65038;53.200;6.530;2022-11-15T05:31:54;68.80;;;21.55;;
76236;SDS011;65038;53.200;6.530;2022-11-15T05:34:21;79.30;;;22.42;;
76236;SDS011;65038;53.200;6.530;2022-11-15T05:36:47;65.35;;;20.27;;
76236;SDS011;65038;53.200;6.530;2022-11-15T05:39:14;76.78;;;23.67;;
76236;SDS011;65038;53.200;6.530;2022-11-15T05:41:41;80.57;;;22.73;;
76236;SDS011;65038;53.200;6.530;2022-11-15T05:44:09;73.57;;;23.30;;
76236;SDS011;65038;53.200;6.530;2022-11-15T05:46:36;70.57;;;21.98;;
76236;SDS011;65038;53.200;6.530;2022-11-15T05:49:03;78.60;;;23.58;;
76236;SDS011;65038;53.200;6.530;2022-11-15T05:51:30;86.85;;;25.52;;
76236;SDS011;65038;53.200;6.530;2022-11-15T05:53:57;80.75;;;24.90;;
76236;SDS011;65038;53.200;6.530;2022-11-15T05:56:24;92.03;;;25.30;;
76236;SDS011;65038;53.200;6.530;2022-11-15T05:58:51;82.20;;;24.88;;
76236;SDS011;65038;53.200;6.530;2022-11-15T06:01:17;83.65;;;25.80;;
76236;SDS011;65038;53.200;6.530;2022-11-15T06:03:43;91.80;;;27.88;;
76236;SDS011;65038;53.200;6.530;2022-11-15T06:06:09;90.07;;;26.13;;
76236;SDS011;65038;53.200;6.530;2022-11-15T06:08:35;98.00;;;26.88;;
76236;SDS011;65038;53.200;6.530;2022-11-15T06:11:05;99.93;;;27.48;;
76236;SDS011;65038;53.200;6.530;2022-11-15T06:13:31;98.18;;;26.85;;
76236;SDS011;65038;53.200;6.530;2022-11-15T06:15:57;95.85;;;25.70;;
76236;SDS011;65038;53.200;6.530;2022-11-15T06:18:24;105.43;;;28.42;;
76236;SDS011;65038;53.200;6.530;2022-11-15T06:20:50;89.50;;;26.92;;
76236;SDS011;65038;53.200;6.530;2022-11-15T06:23:16;102.22;;;29.77;;
76236;SDS011;65038;53.200;6.530;2022-11-15T06:25:43;93.32;;;27.40;;
76236;SDS011;65038;53.200;6.530;2022-11-15T06:28:09;105.40;;;27.63;;
76236;SDS011;65038;53.200;6.530;2022-11-15T06:30:35;93.15;;;28.00;;
76236;SDS011;65038;53.200;6.530;2022-11-15T06:33:01;91.70;;;27.23;;
76236;SDS011;65038;53.200;6.530;2022-11-15T06:35:28;106.28;;;28.50;;
76236;SDS011;65038;53.200;6.530;2022-11-15T06:37:54;95.35;;;29.23;;
76236;SDS011;65038;53.200;6.530;2022-11-15T06:40:21;96.03;;;28.02;;
76236;SDS011;65038;53.200;6.530;2022-11-15T06:42:47;107.63;;;28.42;;
76236;SDS011;65038;53.200;6.530;2022-11-15T06:45:13;95.35;;;29.77;;
76236;SDS011;65038;53.200;6.530;2022-11-15T06:47:45;90.65;;;27.08;;
76236;SDS011;65038;53.200;6.530;2022-11-15T06:50:11;92.53;;;27.88;;
76236;SDS011;65038;53.200;6.530;2022-11-15T06:52:37;99.28;;;27.95;;
76236;SDS011;65038;53.200;6.530;2022-11-15T06:55:03;92.70;;;27.05;;
76236;SDS011;65038;53.200;6.530;2022-11-15T06:57:30;89.70;;;28.63;;
76236;SDS011;65038;53.200;6.530;2022-11-15T06:59:57;89.82;;;27.08;;
76236;SDS011;65038;53.200;6.530;2022-11-15T07:02:23;94.72;;;27.90;;
76236;SDS011;65038;53.200;6.530;2022-11-15T07:04:49;88.28;;;27.38;;
76236;SDS011;65038;53.200;6.530;2022-11-15T07:07:15;93.55;;;28.83;;
76236;SDS011;65038;53.200;6.530;2022-11-15T07:09:41;94.60;;;27.50;;
76236;SDS011;65038;53.200;6.530;2022-11-15T07:12:07;87.32;;;27.45;;
76236;SDS011;65038;53.200;6.530;2022-11-15T07:14:33;88.53;;;27.30;;
76236;SDS011;65038;53.200;6.530;2022-11-15T07:16:59;83.95;;;25.98;;
76236;SDS011;65038;53.200;6.530;2022-11-15T07:19:25;88.53;;;28.88;;
76236;SDS011;65038;53.200;6.530;2022-11-15T07:21:51;82.30;;;25.77;;
76236;SDS011;65038;53.200;6.530;2022-11-15T07:24:17;85.07;;;26.58;;
76236;SDS011;65038;53.200;6.530;2022-11-15T07:26:43;81.22;;;26.25;;
76236;SDS011;65038;53.200;6.530;2022-11-15T07:29:09;73.78;;;24.85;;
76236;SDS011;65038;53.200;6.530;2022-11-15T07:31:35;75.15;;;25.15;;
76236;SDS011;65038;53.200;6.530;2022-11-15T07:34:01;73.88;;;25.05;;
76236;SDS011;65038;53.200;6.530;2022-11-15T07:36:27;72.25;;;23.88;;
76236;SDS011;65038;53.200;6.530;2022-11-15T07:38:53;68.80;;;23.65;;
76236;SDS011;65038;53.200;6.530;2022-11-15T07:41:19;70.47;;;23.52;;
76236;SDS011;65038;53.200;6.530;2022-11-15T07:43:45;71.85;;;23.55;;
76236;SDS011;65038;53.200;6.530;2022-11-15T07:46:12;72.25;;;24.80;;
76236;SDS011;65038;53.200;6.530;2022-11-15T07:48:38;69.95;;;24.77;;
76236;SDS011;65038;53.200;6.530;2022-11-15T07:51:05;65.80;;;22.55;;
76236;SDS011;65038;53.200;6.530;2022-11-15T07:53:31;65.05;;;22.73;;
76236;SDS011;65038;53.200;6.530;2022-11-15T07:55:57;60.22;;;23.38;;
76236;SDS011;65038;53.200;6.530;2022-11-15T07:58:23;73.38;;;24.48;;
76236;SDS011;65038;53.200;6.530;2022-11-15T08:00:49;64.55;;;21.02;;
76236;SDS011;65038;53.200;6.530;2022-11-15T08:03:16;57.78;;;21.95;;
76236;SDS011;65038;53.200;6.530;2022-11-15T08:05:42;67.47;;;22.77;;
76236;SDS011;65038;53.200;6.530;2022-11-15T08:08:09;60.30;;;21.58;;
76236;SDS011;65038;53.200;6.530;2022-11-15T08:10:36;57.78;;;20.80;;
76236;SDS011;65038;53.200;6.530;2022-11-15T08:13:09;62.53;;;22.20;;
76236;SDS011;65038;53.200;6.530;2022-11-15T08:15:36;52.88;;;21.00;;
76236;SDS011;65038;53.200;6.530;2022-11-15T08:18:20;56.88;;;21.00;;
76236;SDS011;65038;53.200;6.530;2022-11-15T08:20:46;54.53;;;21.83;;
76236;SDS011;65038;53.200;6.530;2022-11-15T08:23:12;51.33;;;20.08;;
76236;SDS011;65038;53.200;6.530;2022-11-15T08:25:38;48.85;;;20.35;;
76236;SDS011;65038;53.200;6.530;2022-11-15T08:28:05;48.67;;;19.60;;
76236;SDS011;65038;53.200;6.530;2022-11-15T08:30:35;48.72;;;20.05;;
76236;SDS011;65038;53.200;6.530;2022-11-15T08:33:02;49.78;;;19.80;;
76236;SDS011;65038;53.200;6.530;2022-11-15T08:35:28;49.33;;;19.85;;
76236;SDS011;65038;53.200;6.530;2022-11-15T08:37:55;44.75;;;18.92;;
76236;SDS011;65038;53.200;6.530;2022-11-15T08:40:21;43.13;;;18.67;;
76236;SDS011;65038;53.200;6.530;2022-11-15T08:42:47;44.60;;;18.23;;
76236;SDS011;65038;53.200;6.530;2022-11-15T08:45:13;46.22;;;18.42;;
76236;SDS011;65038;53.200;6.530;2022-11-15T08:47:39;44.88;;;18.13;;
76236;SDS011;65038;53.200;6.530;2022-11-15T08:50:05;44.53;;;19.40;;
76236;SDS011;65038;53.200;6.530;2022-11-15T08:52:32;40.30;;;17.65;;
76236;SDS011;65038;53.200;6.530;2022-11-15T08:54:58;37.28;;;17.65;;
76236;SDS011;65038;53.200;6.530;2022-11-15T08:57:24;37.60;;;17.02;;
76236;SDS011;65038;53.200;6.530;2022-11-15T08:59:50;39.30;;;17.05;;
76236;SDS011;65038;53.200;6.530;2022-11-15T09:02:16;36.83;;;16.67;;
76236;SDS011;65038;53.200;6.530;2022-11-15T09:04:42;36.25;;;16.35;;
76236;SDS011;65038;53.200;6.530;2022-11-15T09:07:09;32.58;;;15.90;;
76236;SDS011;65038;53.200;6.530;2022-11-15T09:09:35;38.90;;;16.23;;
76236;SDS011;65038;53.200;6.530;2022-11-15T09:12:01;30.98;;;15.07;;
76236;SDS011;65038;53.200;6.530;2022-11-15T09:14:27;34.78;;;16.27;;
76236;SDS011;65038;53.200;6.530;2022-11-15T09:16:53;31.90;;;15.32;;
76236;SDS011;65038;53.200;6.530;2022-11-15T09:19:20;33.22;;;14.98;;
76236;SDS011;65038;53.200;6.530;2022-11-15T09:21:46;31.50;;;14.25;;
76236;SDS011;65038;53.200;6.530;2022-11-15T09:24:12;27.83;;;14.18;;
76236;SDS011;65038;53.200;6.530;2022-11-15T09:26:38;28.35;;;13.52;;
76236;SDS011;65038;53.200;6.530;2022-11-15T09:29:04;30.40;;;13.70;;
76236;SDS011;65038;53.200;6.530;2022-11-15T09:31:30;30.20;;;13.40;;
76236;SDS011;65038;53.200;6.530;2022-11-15T09:33:56;28.77;;;12.48;;
76236;SDS011;65038;53.200;6.530;2022-11-15T09:36:23;42.70;;;13.32;;
76236;SDS011;65038;53.200;6.530;2022-11-15T09:38:49;24.60;;;12.95;;
76236;SDS011;65038;53.200;6.530;2022-11-15T09:46:15;26.27;;;12.32;;
76236;SDS011;65038;53.200;6.530;2022-11-15T09:48:50;25.13;;;12.85;;
76236;SDS011;65038;53.200;6.530;2022-11-15T09:51:27;24.38;;;12.35;;
76236;SDS011;65038;53.200;6.530;2022-11-15T09:56:27;22.88;;;11.75;;
76236;SDS011;65038;53.200;6.530;2022-11-15T10:03:58;25.92;;;12.07;;
76236;SDS011;65038;53.200;6.530;2022-11-15T10:06:25;21.63;;;11.35;;
76236;SDS011;65038;53.200;6.530;2022-11-15T10:11:24;26.38;;;11.43;;
76236;SDS011;65038;53.200;6.530;2022-11-15T10:13:52;21.20;;;11.32;;
76236;SDS011;65038;53.200;6.530;2022-11-15T10:16:37;22.45;;;11.43;;
76236;SDS011;65038;53.200;6.530;2022-11-15T10:24:28;23.52;;;10.95;;
76236;SDS011;65038;53.200;6.530;2022-11-15T10:26:57;23.80;;;10.90;;
76236;SDS011;65038;53.200;6.530;2022-11-15T10:29:24;21.90;;;11.05;;
76236;SDS011;65038;53.200;6.530;2022-11-15T10:31:51;20.83;;;11.40;;
76236;SDS011;65038;53.200;6.530;2022-11-15T10:34:21;21.27;;;11.57;;
76236;SDS011;65038;53.200;6.530;2022-11-15T10:39:20;22.20;;;11.30;;
76236;SDS011;65038;53.200;6.530;2022-11-15T10:41:46;25.90;;;11.25;;
76236;SDS011;65038;53.200;6.530;2022-11-15T10:44:19;22.52;;;10.48;;
76236;SDS011;65038;53.200;6.530;2022-11-15T10:46:47;21.90;;;11.23;;
76236;SDS011;65038;53.200;6.530;2022-11-15T10:49:20;21.90;;;10.65;;
76236;SDS011;65038;53.200;6.530;2022-11-15T10:51:52;22.55;;;11.02;;
76236;SDS011;65038;53.200;6.530;2022-11-15T10:59:31;22.25;;;10.20;;
76236;SDS011;65038;53.200;6.530;2022-11-15T11:01:58;23.10;;;10.75;;
76236;SDS011;65038;53.200;6.530;2022-11-15T11:04:24;21.42;;;11.00;;
76236;SDS011;65038;53.200;6.530;2022-11-15T11:06:55;22.52;;;10.90;;
76236;SDS011;65038;53.200;6.530;2022-11-15T11:09:30;22.00;;;11.05;;
76236;SDS011;65038;53.200;6.530;2022-11-15T11:11:57;20.77;;;10.50;;
76236;SDS011;65038;53.200;6.530;2022-11-15T11:16:59;16.90;;;9.75;;
76236;SDS011;65038;53.200;6.530;2022-11-15T11:24:49;20.45;;;10.32;;
76236;SDS011;65038;53.200;6.530;2022-11-15T11:45:15;18.80;;;9.65;;
76236;SDS011;65038;53.200;6.530;2022-11-15T11:47:48;19.52;;;9.52;;
76236;SDS011;65038;53.200;6.530;2022-11-15T11:50:20;17.25;;;8.98;;
76236;SDS011;65038;53.200;6.530;2022-11-15T11:53:09;19.73;;;8.85;;
76236;SDS011;65038;53.200;6.530;2022-11-15T11:58:14;16.52;;;8.40;;
76236;SDS011;65038;53.200;6.530;2022-11-15T12:00:44;16.45;;;8.77;;
76236;SDS011;65038;53.200;6.530;2022-11-15T12:05:41;14.85;;;7.38;;
76236;SDS011;65038;53.200;6.530;2022-11-15T12:10:47;9.80;;;5.60;;
76236;SDS011;65038;53.200;6.530;2022-11-15T12:13:19;10.32;;;4.80;;
76236;SDS011;65038;53.200;6.530;2022-11-15T12:16:00;7.40;;;3.63;;
76236;SDS011;65038;53.200;6.530;2022-11-15T12:18:29;7.63;;;3.40;;
76236;SDS011;65038;53.200;6.530;2022-11-15T12:20:59;7.05;;;3.55;;
76236;SDS011;65038;53.200;6.530;2022-11-15T12:23:27;6.93;;;3.30;;
76236;SDS011;65038;53.200;6.530;2022-11-15T12:28:40;6.57;;;3.13;;
76236;SDS011;65038;53.200;6.530;2022-11-15T12:33:36;7.32;;;3.35;;
76236;SDS011;65038;53.200;6.530;2022-11-15T12:36:04;5.88;;;2.60;;
76236;SDS011;65038;53.200;6.530;2022-11-15T12:41:30;7.45;;;2.92;;
76236;SDS011;65038;53.200;6.530;2022-11-15T12:43:56;7.43;;;3.10;;
76236;SDS011;65038;53.200;6.530;2022-11-15T13:25:19;7.43;;;3.38;;
76236;SDS011;65038;53.200;6.530;2022-11-15T13:27:47;6.97;;;3.10;;
76236;SDS011;65038;53.200;6.530;2022-11-15T13:30:24;6.10;;;2.90;;
76236;SDS011;65038;53.200;6.530;2022-11-15T13:32:51;5.93;;;3.13;;
76236;SDS011;65038;53.200;6.530;2022-11-15T13:35:21;9.70;;;3.47;;
76236;SDS011;65038;53.200;6.530;2022-11-15T13:37:48;5.20;;;3.10;;
76236;SDS011;65038;53.200;6.530;2022-11-15T13:42:46;8.15;;;3.33;;
76236;SDS011;65038;53.200;6.530;2022-11-15T13:45:13;5.88;;;2.90;;
76236;SDS011;65038;53.200;6.530;2022-11-15T13:47:40;6.13;;;2.80;;
76236;SDS011;65038;53.200;6.530;2022-11-15T13:50:09;8.25;;;3.13;;
76236;SDS011;65038;53.200;6.530;2022-11-15T13:52:36;5.38;;;2.40;;
76236;SDS011;65038;53.200;6.530;2022-11-15T13:55:14;7.40;;;2.90;;
76236;SDS011;65038;53.200;6.530;2022-11-15T13:57:42;6.75;;;2.70;;
76236;SDS011;65038;53.200;6.530;2022-11-15T14:02:55;9.50;;;2.97;;
76236;SDS011;65038;53.200;6.530;2022-11-15T14:05:22;7.75;;;2.83;;
76236;SDS011;65038;53.200;6.530;2022-11-15T14:07:59;5.68;;;2.50;;
76236;SDS011;65038;53.200;6.530;2022-11-15T14:10:31;5.90;;;2.70;;
76236;SDS011;65038;53.200;6.530;2022-11-15T14:12:58;5.03;;;2.33;;
76236;SDS011;65038;53.200;6.530;2022-11-15T14:15:32;6.53;;;2.53;;
76236;SDS011;65038;53.200;6.530;2022-11-15T14:17:59;6.20;;;2.40;;
76236;SDS011;65038;53.200;6.530;2022-11-15T14:22:55;5.20;;;2.47;;
76236;SDS011;65038;53.200;6.530;2022-11-15T14:25:22;5.07;;;2.60;;
76236;SDS011;65038;53.200;6.530;2022-11-15T14:30:34;5.63;;;2.40;;
76236;SDS011;65038;53.200;6.530;2022-11-15T14:33:00;5.65;;;2.10;;
76236;SDS011;65038;53.200;6.530;2022-11-15T14:35:27;4.38;;;2.10;;
76236;SDS011;65038;53.200;6.530;2022-11-15T14:37:54;5.80;;;2.42;;
76236;SDS011;65038;53.200;6.530;2022-11-15T14:40:21;5.80;;;2.03;;
76236;SDS011;65038;53.200;6.530;2022-11-15T14:42:48;7.07;;;2.50;;
76236;SDS011;65038;53.200;6.530;2022-11-15T14:45:16;4.35;;;2.10;;
76236;SDS011;65038;53.200;6.530;2022-11-15T14:47:42;5.45;;;2.17;;
76236;SDS011;65038;53.200;6.530;2022-11-15T14:50:12;5.25;;;2.20;;
76236;SDS011;65038;53.200;6.530;2022-11-15T14:52:38;5.95;;;2.28;;
76236;SDS011;65038;53.200;6.530;2022-11-15T14:55:10;5.10;;;2.30;;
76236;SDS011;65038;53.200;6.530;2022-11-15T14:57:39;4.68;;;2.13;;
76236;SDS011;65038;53.200;6.530;2022-11-15T15:00:05;5.10;;;2.08;;
76236;SDS011;65038;53.200;6.530;2022-11-15T15:02:31;4.72;;;2.20;;
76236;SDS011;65038;53.200;6.530;2022-11-15T15:04:57;7.90;;;2.33;;
76236;SDS011;65038;53.200;6.530;2022-11-15T15:07:26;5.70;;;2.13;;
76236;SDS011;65038;53.200;6.530;2022-11-15T15:09:52;5.50;;;2.10;;
76236;SDS011;65038;53.200;6.530;2022-11-15T15:12:19;4.32;;;1.98;;
76236;SDS011;65038;53.200;6.530;2022-11-15T15:14:46;4.38;;;1.90;;
76236;SDS011;65038;53.200;6.530;2022-11-15T15:17:13;4.55;;;2.17;;
76236;SDS011;65038;53.200;6.530;2022-11-15T15:19:39;4.55;;;2.00;;
76236;SDS011;65038;53.200;6.530;2022-11-15T15:22:05;4.63;;;2.20;;
76236;SDS011;65038;53.200;6.530;2022-11-15T15:24:31;5.50;;;2.33;;
76236;SDS011;65038;53.200;6.530;2022-11-15T15:26:57;4.70;;;2.30;;
76236;SDS011;65038;53.200;6.530;2022-11-15T15:29:23;5.47;;;2.00;;
76236;SDS011;65038;53.200;6.530;2022-11-15T15:31:49;5.47;;;2.05;;
76236;SDS011;65038;53.200;6.530;2022-11-15T15:34:15;6.45;;;2.47;;
76236;SDS011;65038;53.200;6.530;2022-11-15T15:36:41;6.10;;;2.13;;
76236;SDS011;65038;53.200;6.530;2022-11-15T15:39:08;4.75;;;2.25;;
76236;SDS011;65038;53.200;6.530;2022-11-15T15:41:34;4.93;;;2.80;;
76236;SDS011;65038;53.200;6.530;2022-11-15T15:44:00;5.00;;;2.40;;
76236;SDS011;65038;53.200;6.530;2022-11-15T15:46:26;7.72;;;3.17;;
76236;SDS011;65038;53.200;6.530;2022-11-15T15:48:52;5.35;;;2.67;;
76236;SDS011;65038;53.200;6.530;2022-11-15T15:51:18;4.82;;;2.65;;
76236;SDS011;65038;53.200;6.530;2022-11-15T15:53:44;4.72;;;3.15;;
76236;SDS011;65038;53.200;6.530;2022-11-15T15:56:10;5.50;;;2.80;;
76236;SDS011;65038;53.200;6.530;2022-11-15T15:58:36;5.03;;;2.80;;
76236;SDS011;65038;53.200;6.530;2022-11-15T16:01:02;6.30;;;3.35;;
76236;SDS011;65038;53.200;6.530;2022-11-15T16:03:28;5.70;;;3.10;;
76236;SDS011;65038;53.200;6.530;2022-11-15T16:05:55;6.20;;;3.67;;
76236;SDS011;65038;53.200;6.530;2022-11-15T16:08:22;5.38;;;2.92;;
76236;SDS011;65038;53.200;6.530;2022-11-15T16:10:48;7.35;;;3.08;;
76236;SDS011;65038;53.200;6.530;2022-11-15T16:13:14;7.70;;;3.40;;
76236;SDS011;65038;53.200;6.530;2022-11-15T16:15:40;6.00;;;3.22;;
76236;SDS011;65038;53.200;6.530;2022-11-15T16:18:17;6.63;;;3.53;;
76236;SDS011;65038;53.200;6.530;2022-11-15T16:20:45;6.53;;;4.10;;
76236;SDS011;65038;53.200;6.530;2022-11-15T16:23:15;7.38;;;3.78;;
76236;SDS011;65038;53.200;6.530;2022-11-15T16:25:45;8.45;;;3.85;;
76236;SDS011;65038;53.200;6.530;2022-11-15T16:28:16;6.97;;;3.85;;
76236;SDS011;65038;53.200;6.530;2022-11-15T16:30:42;7.40;;;3.53;;
76236;SDS011;65038;53.200;6.530;2022-11-15T16:33:08;8.57;;;4.00;;
76236;SDS011;65038;53.200;6.530;2022-11-15T16:35:34;7.00;;;4.00;;
76236;SDS011;65038;53.200;6.530;2022-11-15T16:38:00;5.85;;;3.90;;
76236;SDS011;65038;53.200;6.530;2022-11-15T16:40:27;7.13;;;3.70;;
76236;SDS011;65038;53.200;6.530;2022-11-15T16:42:55;7.40;;;3.67;;
76236;SDS011;65038;53.200;6.530;2022-11-15T16:45:21;7.30;;;4.05;;
76236;SDS011;65038;53.200;6.530;2022-11-15T16:47:47;7.05;;;3.53;;
76236;SDS011;65038;53.200;6.530;2022-11-15T16:50:17;8.98;;;4.03;;
76236;SDS011;65038;53.200;6.530;2022-11-15T16:52:48;6.60;;;3.80;;
76236;SDS011;65038;53.200;6.530;2022-11-15T16:55:13;5.60;;;3.38;;
76236;SDS011;65038;53.200;6.530;2022-11-15T16:57:39;7.05;;;3.85;;
76236;SDS011;65038;53.200;6.530;2022-11-15T17:00:06;7.65;;;3.88;;
76236;SDS011;65038;53.200;6.530;2022-11-15T17:02:32;8.77;;;4.13;;